KBDR/BDR METAR and TAF weather

Enter ICAO airport designator
Station Type Date Time Source
KBDR METAR 2020/08/11 18:52 UTC NOAA

KBDR 111852Z 19012KT 10SM CLR 31/22 A2995 RMK AO2 SLP143 T03110217


Station Type Date Time Source
KBDR Decoded METAR 2020/08/11 18:52 UTC NOAA

SIKORSKY MEMORIAL AIRPORT, CT, United States (KBDR) 41-10N 073-08W 7M
Aug 11, 2020 - 02:52 PM EDT / 2020.08.11 1852 UTC
Wind: from the S (190 degrees) at 14 MPH (12 KT):0
Visibility: 10 mile(s):0
Sky conditions: clear
Temperature: 88.0 F (31.1 C)
Heat index: 93.7 F (34.3 C):1
Dew Point: 71.1 F (21.7 C)
Relative Humidity: 57%
Pressure (altimeter): 29.95 in. Hg (1014 hPa)
ob: KBDR 111852Z 19012KT 10SM CLR 31/22 A2995 RMK AO2 SLP143 T03110217
cycle: 19

Station Type Date Time Source
KBDR TAF 2020/08/11 20:33 UTC NOAA

TAF
AMD KBDR 111930Z 1120/1218 19011KT P6SM BKN250
FM120000 20008KT P6SM FEW040 BKN250
FM120200 21005KT P6SM FEW010 SCT250
TEMPO 1202/1206 BKN010
FM120600 VRB03KT 6SM BR VCSH BKN008
TEMPO 1209/1211 5SM BR BKN006
FM121300 24005KT P6SM FEW025 BKN040

Example: see airport list